Time;durP1;ratioP1;P1;durP2;ratioP2;P2;SDS_P1;SDS_P2;PMS_P1;PMS_P2;Temp;Humidity;BMP_temperature;BMP_pressure;BME280_temperature;BME280_humidity;BME280_pressure;Samples;Min_cycle;Max_cycle;Signal;HPM_P1;HPM_P2
2020/12/30 00:00:10;;;;;;;125.72;43.28;;;7.40;99.90;;;;;;5095479;28;20119;-80
2020/12/30 00:02:36;;;;;;;103.97;39.75;;;7.40;99.90;;;;;;5095750;28;20016;-79
2020/12/30 00:05:09;;;;;;;114.03;43.83;;;7.40;99.90;;;;;;5095832;28;20024;-80
2020/12/30 00:07:38;;;;;;;131.63;44.28;;;7.40;99.90;;;;;;5095799;28;20039;-80
2020/12/30 00:10:05;;;;;;;172.93;48.00;;;7.40;99.90;;;;;;5077679;28;20146;-79
2020/12/30 00:12:34;;;;;;;198.85;46.88;;;7.40;99.90;;;;;;5095501;28;20050;-80
2020/12/30 00:15:00;;;;;;;257.60;51.05;;;7.30;99.90;;;;;;5096602;28;20103;-79
2020/12/30 00:17:26;;;;;;;194.27;55.05;;;7.30;99.90;;;;;;5082585;28;20055;-79
2020/12/30 00:19:52;;;;;;;160.15;50.95;;;7.30;99.90;;;;;;5097711;28;20024;-80
2020/12/30 00:22:18;;;;;;;220.10;55.83;;;7.30;99.90;;;;;;5094447;28;20374;-80
2020/12/30 00:24:45;;;;;;;211.88;53.17;;;7.30;99.90;;;;;;5100128;28;20466;-81
2020/12/30 00:27:11;;;;;;;197.52;54.58;;;7.30;99.90;;;;;;5078550;28;20036;-81
2020/12/30 00:29:37;;;;;;;162.05;48.95;;;7.20;99.90;;;;;;5095785;28;20089;-80
2020/12/30 00:32:02;;;;;;;193.70;47.70;;;7.20;99.90;;;;;;5077976;28;20077;-81
2020/12/30 00:34:30;;;;;;;182.93;49.10;;;7.20;99.90;;;;;;5096173;28;20094;-81
2020/12/30 00:36:55;;;;;;;164.93;41.03;;;7.20;99.90;;;;;;5096586;28;20024;-80
2020/12/30 00:39:21;;;;;;;269.92;48.40;;;7.10;99.90;;;;;;5077309;28;20095;-79
2020/12/30 00:41:53;;;;;;;207.23;44.92;;;7.10;99.90;;;;;;5077162;28;20382;-80
2020/12/30 00:44:18;;;;;;;351.10;58.05;;;7.10;99.90;;;;;;5078326;28;20028;-80
2020/12/30 00:46:44;;;;;;;312.00;50.13;;;7.10;99.90;;;;;;5095356;28;20043;-80
2020/12/30 00:49:10;;;;;;;305.60;53.10;;;7.10;99.90;;;;;;5095040;28;20111;-80
2020/12/30 00:51:36;;;;;;;310.33;54.80;;;7.10;99.90;;;;;;5094706;28;20462;-80
2020/12/30 00:54:03;;;;;;;317.45;55.67;;;7.10;99.90;;;;;;5094476;28;20373;-79
2020/12/30 00:56:28;;;;;;;270.88;45.95;;;7.00;99.90;;;;;;5076226;28;20393;-80
2020/12/30 00:58:54;;;;;;;445.73;68.40;;;7.00;99.90;;;;;;5095011;28;20032;-79
2020/12/30 01:01:20;;;;;;;214.05;45.33;;;7.00;99.90;;;;;;5093233;28;20047;-77
2020/12/30 01:03:45;;;;;;;501.80;65.30;;;7.00;99.90;;;;;;5094293;28;20165;-79
2020/12/30 01:06:11;;;;;;;536.90;67.93;;;7.00;99.90;;;;;;5075510;28;20027;-77
2020/12/30 01:08:38;;;;;;;385.10;52.60;;;7.00;99.90;;;;;;5093779;28;20382;-80
2020/12/30 01:11:04;;;;;;;466.45;62.35;;;6.90;99.90;;;;;;5076221;28;20374;-79
2020/12/30 01:13:29;;;;;;;342.50;50.75;;;6.90;99.90;;;;;;5094879;28;20038;-79
2020/12/30 01:15:55;;;;;;;265.23;45.88;;;6.90;99.90;;;;;;5094591;28;20820;-79
2020/12/30 01:18:21;;;;;;;294.02;52.33;;;6.90;99.90;;;;;;5094688;28;20358;-82
2020/12/30 01:20:46;;;;;;;471.77;61.03;;;6.90;99.90;;;;;;5094602;28;20099;-79
2020/12/30 01:23:12;;;;;;;445.73;64.68;;;6.80;99.90;;;;;;5076864;28;20028;-80
2020/12/30 01:25:38;;;;;;;314.95;54.33;;;6.90;99.90;;;;;;5076383;28;20442;-79
2020/12/30 01:28:04;;;;;;;383.63;58.70;;;6.80;99.90;;;;;;5075872;28;20024;-79
2020/12/30 01:30:29;;;;;;;593.65;78.25;;;6.80;99.90;;;;;;5094336;28;20036;-80
2020/12/30 01:32:57;;;;;;;458.15;70.65;;;6.80;99.90;;;;;;5094131;28;20044;-81
2020/12/30 01:35:22;;;;;;;423.88;62.83;;;6.70;99.90;;;;;;5093553;28;20378;-80
2020/12/30 01:37:48;;;;;;;601.70;83.30;;;6.70;99.90;;;;;;5075400;28;20025;-81
2020/12/30 01:40:14;;;;;;;530.22;73.70;;;6.70;99.90;;;;;;5075467;28;20027;-80
2020/12/30 01:42:44;;;;;;;589.35;81.50;;;6.60;99.90;;;;;;5093409;28;20020;-80
2020/12/30 01:45:10;;;;;;;773.90;99.93;;;6.60;99.90;;;;;;5093765;28;20024;-80
2020/12/30 01:47:36;;;;;;;517.30;73.50;;;6.60;99.90;;;;;;5075609;28;20043;-81
2020/12/30 01:50:02;;;;;;;414.25;63.30;;;6.50;99.90;;;;;;5093808;28;20021;-80
2020/12/30 01:52:30;;;;;;;520.45;78.93;;;6.50;99.90;;;;;;5093819;28;20024;-82
2020/12/30 01:54:56;;;;;;;205.05;49.92;;;6.40;99.90;;;;;;5093336;28;20024;-81
2020/12/30 01:57:22;;;;;;;642.42;90.20;;;6.40;99.90;;;;;;5093716;28;20030;-83
2020/12/30 01:59:49;;;;;;;467.05;69.85;;;6.40;99.90;;;;;;5075775;28;20103;-82
2020/12/30 02:02:15;;;;;;;777.13;98.82;;;6.30;99.90;;;;;;5093759;28;20024;-83
2020/12/30 02:04:54;;;;;;;392.05;58.50;;;6.30;99.90;;;;;;5075498;28;20020;-82
2020/12/30 02:07:23;;;;;;;376.08;50.97;;;6.30;99.90;;;;;;5093976;28;20016;-82
2020/12/30 02:09:49;;;;;;;522.22;63.42;;;6.30;99.90;;;;;;5092288;28;20020;-83
2020/12/30 02:12:15;;;;;;;378.55;53.20;;;6.30;99.90;;;;;;5092079;28;20035;-84
2020/12/30 02:14:41;;;;;;;465.45;64.70;;;6.30;99.90;;;;;;5074359;28;20028;-82
2020/12/30 02:17:15;;;;;;;504.45;67.63;;;6.30;99.90;;;;;;5094149;28;20038;-82
2020/12/30 02:19:42;;;;;;;570.45;72.53;;;6.30;99.90;;;;;;5093993;28;20031;-82
2020/12/30 02:22:09;;;;;;;426.27;57.90;;;6.30;99.90;;;;;;5092463;28;20023;-80
2020/12/30 02:24:36;;;;;;;435.65;63.70;;;6.30;99.90;;;;;;5074505;28;20027;-80
2020/12/30 02:27:04;;;;;;;400.20;58.55;;;6.20;99.90;;;;;;5093062;28;20071;-81
2020/12/30 02:29:31;;;;;;;558.08;80.57;;;6.30;99.90;;;;;;5074757;28;20035;-81
2020/12/30 02:31:57;;;;;;;649.30;89.55;;;6.20;99.90;;;;;;5074711;28;20031;-81
2020/12/30 02:34:23;;;;;;;427.17;60.88;;;6.20;99.90;;;;;;5075062;28;20389;-81
2020/12/30 02:36:50;;;;;;;423.58;59.20;;;6.20;99.90;;;;;;5074702;28;20370;-80
2020/12/30 02:39:16;;;;;;;766.25;88.35;;;6.30;99.90;;;;;;5093440;28;20562;-81
2020/12/30 02:41:42;;;;;;;352.80;55.67;;;6.30;99.90;;;;;;5093098;28;20486;-82
2020/12/30 02:44:08;;;;;;;675.47;77.20;;;6.20;99.90;;;;;;5093528;28;20093;-81
2020/12/30 02:46:34;;;;;;;220.80;49.42;;;6.20;99.90;;;;;;5093067;28;20099;-81
2020/12/30 02:49:00;;;;;;;326.73;57.78;;;6.30;99.90;;;;;;5093063;28;20107;-81
2020/12/30 02:51:26;;;;;;;559.10;75.72;;;6.30;99.90;;;;;;5093057;28;20022;-81
2020/12/30 02:53:52;;;;;;;430.10;64.35;;;6.30;99.90;;;;;;5093105;28;20370;-80
2020/12/30 02:56:18;;;;;;;586.58;75.20;;;6.30;99.90;;;;;;5093358;28;20088;-82
2020/12/30 02:58:44;;;;;;;442.92;64.28;;;6.30;99.90;;;;;;5093012;28;20101;-82
2020/12/30 03:01:10;;;;;;;332.95;52.78;;;6.20;99.90;;;;;;5092641;28;20123;-82
2020/12/30 03:03:37;;;;;;;323.92;52.25;;;6.20;99.90;;;;;;5093383;28;20020;-81
2020/12/30 03:06:03;;;;;;;779.55;93.65;;;6.20;99.90;;;;;;5074932;28;20047;-81
2020/12/30 03:08:29;;;;;;;554.42;71.10;;;6.20;99.90;;;;;;5075160;28;20024;-80
2020/12/30 03:10:55;;;;;;;488.95;65.05;;;6.10;99.90;;;;;;5093163;28;20034;-81
2020/12/30 03:13:20;;;;;;;371.45;61.00;;;6.10;99.90;;;;;;5074742;28;20028;-81
2020/12/30 03:15:46;;;;;;;435.38;65.10;;;6.10;99.90;;;;;;5092999;28;20035;-81
2020/12/30 03:18:12;;;;;;;452.75;59.45;;;6.00;99.90;;;;;;5075149;28;20081;-81
2020/12/30 03:20:38;;;;;;;423.90;58.10;;;6.00;99.90;;;;;;5092988;28;20524;-82
2020/12/30 03:23:03;;;;;;;356.30;56.30;;;6.00;99.90;;;;;;5092852;28;20020;-81
2020/12/30 03:25:29;;;;;;;420.77;59.28;;;5.90;99.90;;;;;;5095355;28;20367;-82
2020/12/30 03:27:56;;;;;;;583.17;73.65;;;5.90;99.90;;;;;;5096525;28;20028;-82
2020/12/30 03:30:23;;;;;;;437.40;61.95;;;5.90;99.90;;;;;;5096035;28;20488;-78
2020/12/30 03:32:49;;;;;;;622.00;78.28;;;5.80;99.90;;;;;;5077878;28;20382;-78
2020/12/30 03:35:15;;;;;;;751.55;86.55;;;5.80;99.90;;;;;;5095858;28;20486;-78
2020/12/30 03:37:41;;;;;;;497.48;66.95;;;5.80;99.90;;;;;;5095616;28;20020;-78
2020/12/30 03:40:06;;;;;;;184.93;47.60;;;5.90;99.90;;;;;;5077427;28;20103;-78
2020/12/30 03:42:32;;;;;;;602.33;74.78;;;5.90;99.90;;;;;;5096346;28;20050;-79
2020/12/30 03:44:58;;;;;;;644.97;78.57;;;5.90;99.90;;;;;;5077639;28;20081;-78
2020/12/30 03:47:24;;;;;;;397.45;65.82;;;5.90;99.90;;;;;;5078300;28;20115;-81
2020/12/30 03:49:50;;;;;;;671.25;84.90;;;5.90;99.90;;;;;;5096647;28;20102;-81
2020/12/30 03:52:16;;;;;;;688.88;82.47;;;6.00;99.90;;;;;;5097293;28;20024;-81
2020/12/30 03:54:42;;;;;;;627.97;87.47;;;5.90;99.90;;;;;;5079071;28;20032;-81
2020/12/30 03:57:08;;;;;;;788.03;94.97;;;5.90;99.90;;;;;;5077863;28;20024;-81
2020/12/30 03:59:34;;;;;;;866.72;100.53;;;5.90;99.90;;;;;;5097033;28;20017;-81
2020/12/30 04:01:59;;;;;;;428.95;54.40;;;5.90;99.90;;;;;;5096429;28;20538;-80
2020/12/30 04:04:25;;;;;;;537.83;65.28;;;5.90;99.90;;;;;;5095732;28;20012;-81
2020/12/30 04:06:51;;;;;;;477.75;58.67;;;5.90;99.90;;;;;;5100385;28;20074;-82
2020/12/30 04:09:16;;;;;;;1097.07;110.90;;;5.90;99.90;;;;;;5097844;28;20013;-80
2020/12/30 04:11:42;;;;;;;516.70;60.78;;;5.90;99.90;;;;;;5097817;28;20024;-80
2020/12/30 04:14:08;;;;;;;583.47;65.45;;;5.90;99.90;;;;;;5097216;28;20038;-80
2020/12/30 04:16:33;;;;;;;541.28;64.53;;;5.90;99.90;;;;;;5078542;28;20466;-81
2020/12/30 04:18:59;;;;;;;719.58;78.90;;;5.80;99.90;;;;;;5077307;28;20122;-80
2020/12/30 04:21:25;;;;;;;720.63;76.40;;;5.80;99.90;;;;;;5076686;28;20802;-80
2020/12/30 04:23:53;;;;;;;405.70;49.30;;;5.80;99.90;;;;;;5094935;28;20065;-81
2020/12/30 04:26:19;;;;;;;295.08;44.00;;;5.70;99.90;;;;;;5095121;28;20024;-81
2020/12/30 04:28:46;;;;;;;467.75;56.17;;;5.70;99.90;;;;;;5100452;28;20378;-82
2020/12/30 04:31:12;;;;;;;580.15;60.78;;;5.70;99.90;;;;;;5077177;28;20028;-81
2020/12/30 04:33:39;;;;;;;539.63;63.45;;;5.70;99.90;;;;;;5094786;28;20043;-80
2020/12/30 04:36:06;;;;;;;646.72;70.85;;;5.70;99.90;;;;;;5094381;28;20035;-80
2020/12/30 04:38:32;;;;;;;365.80;51.25;;;5.70;99.90;;;;;;5094502;28;20024;-80
2020/12/30 04:41:11;;;;;;;538.28;63.67;;;5.70;99.90;;;;;;5094483;28;20028;-79
2020/12/30 04:43:40;;;;;;;727.42;81.78;;;5.70;99.90;;;;;;5094553;28;20024;-78
2020/12/30 04:46:06;;;;;;;452.05;54.08;;;5.70;99.90;;;;;;5094200;28;20034;-79
2020/12/30 04:48:34;;;;;;;868.42;95.22;;;5.70;99.90;;;;;;5075893;28;20028;-78
2020/12/30 04:51:01;;;;;;;883.00;100.43;;;5.60;99.90;;;;;;5075336;28;20390;-78
2020/12/30 04:53:28;;;;;;;538.33;62.35;;;5.60;99.90;;;;;;5075379;28;20500;-78
2020/12/30 04:55:58;;;;;;;822.10;98.13;;;5.60;99.90;;;;;;5093352;28;20019;-78
2020/12/30 04:58:31;;;;;;;712.88;78.15;;;5.60;99.90;;;;;;5093586;28;20069;-78
2020/12/30 05:00:59;;;;;;;588.53;70.57;;;5.60;99.90;;;;;;5093499;28;20036;-78
2020/12/30 05:03:31;;;;;;;550.72;68.60;;;5.60;99.90;;;;;;5075202;28;20085;-77
2020/12/30 05:06:03;;;;;;;474.85;58.58;;;5.50;99.90;;;;;;5093428;28;20467;-77
2020/12/30 05:08:33;;;;;;;531.05;63.10;;;5.50;99.90;;;;;;5093153;28;20032;-78
2020/12/30 05:10:59;;;;;;;585.08;67.53;;;5.50;99.90;;;;;;5093457;28;20053;-78
2020/12/30 05:13:25;;;;;;;825.95;91.00;;;5.50;99.90;;;;;;5094661;28;20031;-78
2020/12/30 05:15:51;;;;;;;678.25;77.15;;;5.50;99.90;;;;;;5093045;28;20024;-78
2020/12/30 05:18:19;;;;;;;524.28;67.97;;;5.50;99.90;;;;;;5093576;28;20478;-78
2020/12/30 05:20:46;;;;;;;674.75;79.18;;;5.50;99.90;;;;;;5075690;28;20024;-79
2020/12/30 05:23:12;;;;;;;432.25;54.70;;;5.50;99.90;;;;;;5094039;28;20095;-80
2020/12/30 05:25:43;;;;;;;398.55;50.72;;;5.50;99.90;;;;;;5075912;28;20296;-81
2020/12/30 05:28:13;;;;;;;669.03;79.25;;;5.50;99.90;;;;;;5075976;28;20416;-81
2020/12/30 05:30:43;;;;;;;593.60;71.28;;;5.50;99.90;;;;;;5075518;28;20024;-80
2020/12/30 05:33:10;;;;;;;581.00;70.03;;;5.50;99.90;;;;;;5075022;28;20027;-80
2020/12/30 05:35:36;;;;;;;657.63;75.22;;;5.50;99.90;;;;;;5093664;28;20016;-81
2020/12/30 05:38:03;;;;;;;504.00;64.47;;;5.50;99.90;;;;;;5093898;28;20016;-82
2020/12/30 05:40:33;;;;;;;647.58;71.53;;;5.50;99.90;;;;;;5094174;28;20073;-82
2020/12/30 05:43:12;;;;;;;413.00;55.50;;;5.50;99.90;;;;;;5094515;28;20024;-82
2020/12/30 05:45:51;;;;;;;695.28;80.63;;;5.50;99.90;;;;;;5075614;28;20111;-82
2020/12/30 05:48:19;;;;;;;614.55;73.15;;;5.50;99.90;;;;;;5092972;28;20410;-82
2020/12/30 05:50:55;;;;;;;629.60;70.10;;;5.50;99.90;;;;;;5075735;28;20493;-82
2020/12/30 05:53:22;;;;;;;678.90;75.20;;;5.50;99.90;;;;;;5093488;28;20092;-79
2020/12/30 05:56:08;;;;;;;200.32;44.35;;;5.50;99.90;;;;;;5092651;28;20016;-80
2020/12/30 05:58:43;;;;;;;516.42;70.78;;;5.50;99.90;;;;;;5092619;28;20020;-79
2020/12/30 06:01:29;;;;;;;857.97;103.50;;;5.50;99.90;;;;;;5092592;28;20573;-81
2020/12/30 06:03:56;;;;;;;295.48;52.47;;;5.50;99.90;;;;;;5075317;28;20028;-81
2020/12/30 06:06:22;;;;;;;638.03;78.20;;;5.50;99.90;;;;;;5074386;28;20033;-83
2020/12/30 06:08:51;;;;;;;442.80;61.72;;;5.60;99.90;;;;;;5094667;28;20086;-80
2020/12/30 06:11:23;;;;;;;787.42;97.95;;;5.60;99.90;;;;;;5094178;28;20374;-79
2020/12/30 06:13:53;;;;;;;;;;;5.60;99.90;;;;;;5093399;28;20020;-79
2020/12/30 06:16:29;;;;;;;363.15;55.65;;;5.60;99.90;;;;;;5092980;28;19908;-79
2020/12/30 06:18:56;;;;;;;177.77;46.00;;;5.70;99.90;;;;;;5092948;28;20526;-81
2020/12/30 06:21:26;;;;;;;285.60;51.50;;;5.70;99.90;;;;;;5092845;28;20149;-80
2020/12/30 06:23:56;;;;;;;775.47;92.82;;;5.70;99.90;;;;;;5093181;28;20462;-82
2020/12/30 06:26:26;;;;;;;577.47;78.93;;;5.70;99.90;;;;;;5074763;28;20534;-81
2020/12/30 06:28:54;;;;;;;401.25;59.22;;;5.70;99.90;;;;;;5093207;28;20028;-79
2020/12/30 06:31:21;;;;;;;424.45;65.35;;;5.80;99.90;;;;;;5092467;28;20034;-77
2020/12/30 06:33:48;;;;;;;180.18;46.90;;;5.80;99.90;;;;;;5092176;28;20105;-81
2020/12/30 06:36:23;;;;;;;467.73;63.60;;;5.80;99.90;;;;;;5092782;28;20077;-81
2020/12/30 06:38:49;;;;;;;691.75;91.28;;;5.80;99.90;;;;;;5092340;28;20047;-82
2020/12/30 06:41:15;;;;;;;786.92;87.05;;;5.80;99.90;;;;;;5074319;28;20470;-79
2020/12/30 06:43:44;;;;;;;468.27;67.43;;;5.90;99.90;;;;;;5092562;28;20024;-80
2020/12/30 06:46:14;;;;;;;438.35;65.95;;;5.90;99.90;;;;;;5073437;28;20028;-79
2020/12/30 06:48:57;;;;;;;301.13;58.40;;;5.80;99.90;;;;;;5062838;28;20074;-78
2020/12/30 06:51:24;;;;;;;342.08;66.43;;;5.80;99.90;;;;;;5080361;28;20024;-78
2020/12/30 06:53:56;;;;;;;137.25;51.20;;;5.80;99.90;;;;;;5091392;28;20031;-77
2020/12/30 06:56:45;;;;;;;384.45;62.33;;;5.80;99.90;;;;;;5083260;28;20024;-78
2020/12/30 06:59:26;;;;;;;178.43;50.42;;;5.90;99.90;;;;;;5064070;28;20035;-78
2020/12/30 07:01:54;;;;;;;279.48;49.95;;;5.90;99.90;;;;;;5064365;28;20482;-78
2020/12/30 07:04:19;;;;;;;485.40;72.97;;;6.00;99.90;;;;;;5085036;28;20032;-79
2020/12/30 07:06:45;;;;;;;360.27;62.13;;;6.00;99.90;;;;;;5083499;28;20431;-79
2020/12/30 07:09:14;;;;;;;221.23;57.05;;;6.00;99.90;;;;;;5068042;28;20382;-79
2020/12/30 07:11:41;;;;;;;355.38;73.40;;;6.00;99.90;;;;;;5085372;28;20020;-79
2020/12/30 07:14:09;;;;;;;202.52;67.25;;;6.10;99.90;;;;;;5067220;28;20378;-79
2020/12/30 07:16:36;;;;;;;193.90;64.60;;;6.20;99.90;;;;;;5067715;28;20024;-81
2020/12/30 07:19:09;;;;;;;180.50;66.00;;;6.30;99.90;;;;;;5066244;28;20104;-80
2020/12/30 07:21:50;;;;;;;173.15;65.28;;;6.40;99.90;;;;;;5083843;28;20024;-80
2020/12/30 07:24:22;;;;;;;181.18;67.40;;;6.50;99.90;;;;;;5084391;28;20033;-80
2020/12/30 07:26:50;;;;;;;181.48;65.82;;;6.60;99.90;;;;;;5083183;28;20062;-81
2020/12/30 07:29:17;;;;;;;143.70;59.03;;;6.70;99.90;;;;;;5084045;28;20073;-81
2020/12/30 07:31:47;;;;;;;139.32;58.50;;;6.70;99.90;;;;;;5083089;28;20048;-82
2020/12/30 07:34:19;;;;;;;127.53;49.38;;;6.90;99.90;;;;;;5081917;28;20099;-79
2020/12/30 07:36:46;;;;;;;132.20;49.63;;;6.90;99.90;;;;;;5082246;28;20023;-78
2020/12/30 07:39:12;;;;;;;111.10;42.83;;;7.10;99.90;;;;;;5065751;28;20028;-79
2020/12/30 07:41:43;;;;;;;98.90;39.00;;;7.20;99.90;;;;;;5082560;28;20131;-80
2020/12/30 07:44:10;;;;;;;76.70;34.78;;;7.30;99.90;;;;;;5081954;28;20024;-81
2020/12/30 07:46:35;;;;;;;68.25;32.17;;;7.40;99.90;;;;;;5084629;28;20086;-79
2020/12/30 07:49:08;;;;;;;67.93;30.90;;;7.50;99.90;;;;;;5081661;28;20024;-79
2020/12/30 07:51:35;;;;;;;50.15;26.60;;;7.60;99.90;;;;;;5081874;28;20024;-79
2020/12/30 07:54:00;;;;;;;53.63;26.35;;;7.60;99.90;;;;;;5083526;28;20024;-80
2020/12/30 07:56:26;;;;;;;47.53;24.35;;;7.70;99.90;;;;;;5063870;28;20028;-79
2020/12/30 07:58:53;;;;;;;43.47;24.33;;;7.80;99.90;;;;;;5093144;28;20031;-78
2020/12/30 08:01:19;;;;;;;47.33;23.80;;;7.80;99.90;;;;;;5093089;28;20397;-80
2020/12/30 08:03:45;;;;;;;50.45;25.77;;;7.90;99.90;;;;;;5093409;28;20103;-79
2020/12/30 08:06:11;;;;;;;47.78;26.10;;;7.90;99.90;;;;;;5093133;28;20435;-79
2020/12/30 08:08:44;;;;;;;46.50;25.80;;;7.90;99.90;;;;;;5093318;28;20060;-79
2020/12/30 08:11:10;;;;;;;46.53;24.88;;;8.00;99.90;;;;;;5074963;28;20024;-78
2020/12/30 08:13:38;;;;;;;53.25;26.10;;;8.10;99.90;;;;;;5093170;28;20493;-83
2020/12/30 08:16:05;;;;;;;45.10;23.27;;;8.10;99.90;;;;;;5093029;28;20103;-78
2020/12/30 08:18:30;;;;;;;49.88;21.27;;;8.10;99.90;;;;;;5075173;28;20553;-76
2020/12/30 08:20:57;;;;;;;44.03;21.20;;;8.10;99.90;;;;;;5092982;28;20028;-77
2020/12/30 08:23:22;;;;;;;41.90;20.23;;;8.20;99.90;;;;;;5092003;28;20040;-78
2020/12/30 08:25:49;;;;;;;45.50;22.42;;;8.20;99.90;;;;;;5092181;28;20020;-76
2020/12/30 08:28:15;;;;;;;39.10;20.55;;;8.20;99.90;;;;;;5092820;28;20020;-78
2020/12/30 08:30:42;;;;;;;43.50;22.30;;;8.30;99.90;;;;;;5092281;28;20016;-79
2020/12/30 08:33:12;;;;;;;31.75;19.15;;;8.30;99.90;;;;;;5092702;28;20016;-78
2020/12/30 08:35:54;;;;;;;36.03;20.42;;;8.40;99.90;;;;;;5093066;28;20020;-78
2020/12/30 08:38:19;;;;;;;34.88;19.60;;;8.40;99.90;;;;;;5092956;28;20028;-80
2020/12/30 08:40:52;;;;;;;34.15;20.10;;;8.50;99.90;;;;;;5092837;28;20012;-76
2020/12/30 08:43:56;;;;;;;41.25;23.25;;;8.50;99.90;;;;;;5091818;28;20028;-78
2020/12/30 08:46:26;;;;;;;38.30;21.50;;;8.60;99.90;;;;;;5074263;28;20032;-78
2020/12/30 08:48:53;;;;;;;38.22;22.90;;;8.70;99.90;;;;;;5092176;28;20024;-78
2020/12/30 08:51:33;;;;;;;38.42;22.23;;;8.70;99.90;;;;;;5091966;28;20132;-79
2020/12/30 08:53:59;;;;;;;67.95;39.22;;;8.80;99.90;;;;;;5091846;28;20016;-78
2020/12/30 08:56:26;;;;;;;150.75;97.53;;;8.90;99.90;;;;;;5091710;28;20027;-78
2020/12/30 08:58:54;;;;;;;144.07;90.53;;;8.90;99.90;;;;;;5092416;28;20020;-79
2020/12/30 09:01:20;;;;;;;155.88;103.07;;;9.00;99.90;;;;;;5092471;28;20121;-80
2020/12/30 09:03:46;;;;;;;166.60;116.57;;;9.10;99.90;;;;;;5098465;28;20016;-77
2020/12/30 09:06:27;;;;;;;163.32;108.80;;;9.10;99.90;;;;;;5097530;28;20091;-79
2020/12/30 09:08:53;;;;;;;171.45;115.80;;;9.20;99.90;;;;;;5099102;28;20099;-78
2020/12/30 09:11:19;;;;;;;146.55;97.78;;;9.20;99.90;;;;;;5076286;28;20024;-79
2020/12/30 09:13:45;;;;;;;131.52;85.38;;;9.30;99.90;;;;;;5097413;28;20088;-79
2020/12/30 09:16:11;;;;;;;116.57;62.58;;;9.30;99.90;;;;;;5098048;28;20032;-79
2020/12/30 09:18:37;;;;;;;76.85;45.08;;;9.30;99.90;;;;;;5094110;28;20020;-78
2020/12/30 09:21:03;;;;;;;74.72;42.10;;;9.40;99.90;;;;;;5092431;28;20107;-80
2020/12/30 09:23:29;;;;;;;66.70;32.55;;;9.40;99.90;;;;;;5073238;28;20032;-79
2020/12/30 09:25:56;;;;;;;61.28;31.88;;;9.40;99.90;;;;;;5091705;28;20069;-78
2020/12/30 09:28:26;;;;;;;74.22;33.95;;;9.50;99.90;;;;;;5091361;28;20043;-79
2020/12/30 09:30:54;;;;;;;74.93;35.17;;;9.50;99.90;;;;;;5091440;28;20495;-80
2020/12/30 09:33:20;;;;;;;59.47;28.38;;;9.50;99.90;;;;;;5091844;28;20032;-78
2020/12/30 09:35:47;;;;;;;53.28;28.23;;;9.50;99.90;;;;;;5091641;28;20059;-80
2020/12/30 09:38:21;;;;;;;42.67;21.92;;;9.60;99.90;;;;;;5091154;28;20430;-79
2020/12/30 09:40:49;;;;;;;51.28;22.70;;;9.60;99.90;;;;;;5091177;28;20024;-79
2020/12/30 09:43:23;;;;;;;60.05;26.08;;;9.70;99.90;;;;;;5090878;28;20020;-79
2020/12/30 09:45:55;;;;;;;56.97;26.30;;;9.70;99.90;;;;;;5072518;28;20066;-79
2020/12/30 09:48:21;;;;;;;51.83;25.20;;;9.70;99.90;;;;;;5091269;28;20030;-81
2020/12/30 09:50:52;;;;;;;50.85;24.38;;;9.80;99.90;;;;;;5090720;28;20032;-79
2020/12/30 09:53:17;;;;;;;41.70;21.35;;;9.80;99.90;;;;;;5091622;28;20073;-78
2020/12/30 09:55:44;;;;;;;32.25;18.85;;;9.80;99.90;;;;;;5090677;28;20024;-79
2020/12/30 09:58:10;;;;;;;36.13;20.25;;;9.90;99.90;;;;;;5090433;28;20479;-78
2020/12/30 10:00:36;;;;;;;27.73;16.52;;;10.00;99.90;;;;;;5090665;28;20151;-79
2020/12/30 10:03:02;;;;;;;30.08;15.15;;;10.00;99.90;;;;;;5091069;28;20024;-78
2020/12/30 10:05:28;;;;;;;23.95;15.13;;;10.00;99.90;;;;;;5090254;28;20378;-80
2020/12/30 10:07:53;;;;;;;25.95;14.73;;;10.10;99.90;;;;;;5089848;28;20021;-79
2020/12/30 10:10:19;;;;;;;26.15;15.52;;;10.20;99.90;;;;;;5090148;28;20032;-78
2020/12/30 10:12:45;;;;;;;25.63;16.58;;;10.30;99.90;;;;;;5090133;28;20028;-78
2020/12/30 10:15:11;;;;;;;25.13;15.07;;;10.30;99.90;;;;;;5090537;28;20478;-79
2020/12/30 10:17:38;;;;;;;21.92;13.80;;;10.40;99.90;;;;;;5090619;28;20039;-78
2020/12/30 10:20:09;;;;;;;18.33;12.73;;;10.50;99.90;;;;;;5090972;28;20028;-79
2020/12/30 10:22:36;;;;;;;19.42;13.07;;;10.50;99.90;;;;;;5091183;28;20055;-79
2020/12/30 10:25:02;;;;;;;25.52;13.80;;;10.60;99.90;;;;;;5090645;28;20109;-78
2020/12/30 10:27:28;;;;;;;25.33;15.48;;;10.60;99.90;;;;;;5091035;28;20020;-79
2020/12/30 10:29:54;;;;;;;23.80;13.88;;;10.70;99.90;;;;;;5072526;28;20374;-79
2020/12/30 10:32:19;;;;;;;24.42;14.95;;;10.70;99.90;;;;;;5090401;28;20085;-78
2020/12/30 10:34:45;;;;;;;26.45;14.65;;;10.70;99.90;;;;;;5093789;28;20031;-78
2020/12/30 10:37:11;;;;;;;23.52;14.13;;;10.80;99.90;;;;;;5094248;28;20031;-80
2020/12/30 10:39:36;;;;;;;22.90;14.43;;;10.90;99.90;;;;;;5094985;28;20096;-81
2020/12/30 10:42:03;;;;;;;21.55;13.85;;;11.00;99.90;;;;;;5076041;28;20032;-78
2020/12/30 10:44:29;;;;;;;33.97;19.50;;;11.10;99.90;;;;;;5095023;28;20081;-79
2020/12/30 10:46:55;;;;;;;56.50;38.35;;;11.10;99.90;;;;;;5094315;28;20028;-79
2020/12/30 10:49:22;;;;;;;52.40;35.53;;;11.20;99.90;;;;;;5094601;28;20085;-81
2020/12/30 10:51:51;;;;;;;48.30;27.05;;;11.20;99.90;;;;;;5095260;28;20036;-81
2020/12/30 10:54:17;;;;;;;47.40;24.50;;;11.20;99.90;;;;;;5094599;28;20024;-80
2020/12/30 10:56:54;;;;;;;46.45;22.33;;;11.20;99.90;;;;;;5094184;28;20385;-81
2020/12/30 10:59:20;;;;;;;45.28;20.70;;;11.20;99.90;;;;;;5094898;28;20099;-81
2020/12/30 11:01:53;;;;;;;35.83;19.02;;;11.20;99.90;;;;;;5076274;28;20057;-79
2020/12/30 11:04:20;;;;;;;35.53;17.80;;;11.30;99.90;;;;;;5096677;28;20024;-78
2020/12/30 11:06:46;;;;;;;44.90;25.83;;;11.40;99.90;;;;;;5094054;28;20099;-80
2020/12/30 11:09:12;;;;;;;42.67;18.42;;;11.50;99.90;;;;;;5095470;28;20020;-80
2020/12/30 11:11:39;;;;;;;42.97;25.00;;;11.50;99.90;;;;;;5094507;28;20716;-83
2020/12/30 11:14:05;;;;;;;39.40;22.58;;;11.60;99.90;;;;;;5075941;28;20030;-80
2020/12/30 11:16:31;;;;;;;41.97;26.45;;;11.70;99.90;;;;;;5094394;28;20040;-80
2020/12/30 11:18:57;;;;;;;31.75;20.55;;;11.70;99.90;;;;;;5076465;28;20169;-79
2020/12/30 11:21:22;;;;;;;37.33;24.30;;;11.70;99.90;;;;;;5095301;28;20024;-81
2020/12/30 11:23:48;;;;;;;34.67;21.45;;;11.70;99.90;;;;;;5095022;28;20184;-81
2020/12/30 11:26:14;;;;;;;40.20;22.23;;;11.70;99.90;;;;;;5094789;28;20043;-80
2020/12/30 11:28:40;;;;;;;39.63;23.10;;;11.70;99.90;;;;;;5093857;28;20386;-83
2020/12/30 11:31:07;;;;;;;33.17;18.92;;;11.70;99.90;;;;;;5093762;28;20069;-79
2020/12/30 11:33:37;;;;;;;28.67;15.57;;;11.70;99.90;;;;;;5095309;28;20024;-83
2020/12/30 11:36:03;;;;;;;21.85;12.30;;;11.70;99.90;;;;;;5094057;28;20091;-79
2020/12/30 11:38:28;;;;;;;21.40;13.18;;;11.60;99.90;;;;;;5075641;28;20121;-79
2020/12/30 11:40:54;;;;;;;24.70;12.88;;;11.50;99.90;;;;;;5093959;28;20401;-80
2020/12/30 11:43:20;;;;;;;25.55;14.65;;;11.50;99.90;;;;;;5093978;28;20028;-80
2020/12/30 11:45:45;;;;;;;25.80;13.65;;;11.40;99.90;;;;;;5093687;28;20028;-80
2020/12/30 11:48:11;;;;;;;25.23;14.00;;;11.40;99.90;;;;;;5080405;28;20036;-79
2020/12/30 11:50:37;;;;;;;25.15;13.90;;;11.30;99.90;;;;;;5078388;28;20028;-79
2020/12/30 11:53:03;;;;;;;23.10;13.90;;;11.20;99.90;;;;;;5081292;28;20433;-80
2020/12/30 11:55:29;;;;;;;27.00;15.25;;;11.20;99.90;;;;;;5056501;28;20107;-83
2020/12/30 11:57:55;;;;;;;24.40;14.30;;;11.20;99.90;;;;;;5074329;28;20116;-79
2020/12/30 12:00:20;;;;;;;25.90;16.02;;;11.10;99.90;;;;;;5074736;28;20070;-81
2020/12/30 12:02:46;;;;;;;24.55;14.88;;;11.10;99.90;;;;;;5074322;28;20412;-81
2020/12/30 12:05:13;;;;;;;24.17;14.40;;;11.10;99.90;;;;;;5056121;28;20028;-81
2020/12/30 12:07:40;;;;;;;25.83;14.70;;;11.10;99.90;;;;;;5073410;28;20025;-82
2020/12/30 12:10:10;;;;;;;24.50;14.23;;;11.10;99.90;;;;;;5054956;28;20028;-80
2020/12/30 12:12:37;;;;;;;30.13;15.15;;;11.10;99.90;;;;;;5055406;28;20029;-81
2020/12/30 12:15:07;;;;;;;26.08;16.55;;;11.00;99.90;;;;;;5073052;28;20024;-80
2020/12/30 12:17:33;;;;;;;31.08;15.60;;;10.90;99.90;;;;;;5073563;28;20029;-80
2020/12/30 12:19:59;;;;;;;25.83;15.35;;;10.90;99.90;;;;;;5074882;28;20029;-82
2020/12/30 12:22:27;;;;;;;30.42;15.68;;;10.90;99.90;;;;;;5074872;28;20368;-81
2020/12/30 12:24:53;;;;;;;34.40;15.18;;;10.90;99.90;;;;;;5055521;28;20044;-82
2020/12/30 12:27:19;;;;;;;32.55;17.42;;;10.90;99.90;;;;;;5074016;28;20021;-80
2020/12/30 12:29:47;;;;;;;32.03;16.25;;;10.80;99.90;;;;;;5073355;28;20024;-80